sensor_id;sensor_type;location;lat;lon;timestamp;P1;durP1;ratioP1;P2;durP2;ratioP2
21521;SDS011;10922;45.572;10.002;2023-05-10T00:00:13;7.93;;;7.17;;
21521;SDS011;10922;45.572;10.002;2023-05-10T00:02:39;7.33;;;6.63;;
21521;SDS011;10922;45.572;10.002;2023-05-10T00:05:05;7.23;;;6.47;;
21521;SDS011;10922;45.572;10.002;2023-05-10T00:07:31;7.57;;;6.77;;
21521;SDS011;10922;45.572;10.002;2023-05-10T00:09:57;8.50;;;6.87;;
21521;SDS011;10922;45.572;10.002;2023-05-10T00:12:23;8.23;;;7.40;;
21521;SDS011;10922;45.572;10.002;2023-05-10T00:14:48;9.20;;;7.37;;
21521;SDS011;10922;45.572;10.002;2023-05-10T00:17:14;7.67;;;6.80;;
21521;SDS011;10922;45.572;10.002;2023-05-10T00:19:40;7.40;;;6.67;;
21521;SDS011;10922;45.572;10.002;2023-05-10T00:22:05;7.33;;;6.63;;
21521;SDS011;10922;45.572;10.002;2023-05-10T00:24:31;8.13;;;7.07;;
21521;SDS011;10922;45.572;10.002;2023-05-10T00:26:56;8.37;;;6.90;;
21521;SDS011;10922;45.572;10.002;2023-05-10T00:29:22;6.67;;;6.07;;
21521;SDS011;10922;45.572;10.002;2023-05-10T00:31:48;9.70;;;5.97;;
21521;SDS011;10922;45.572;10.002;2023-05-10T00:34:13;6.93;;;6.13;;
21521;SDS011;10922;45.572;10.002;2023-05-10T00:36:39;7.87;;;7.00;;
21521;SDS011;10922;45.572;10.002;2023-05-10T00:39:05;8.83;;;6.93;;
21521;SDS011;10922;45.572;10.002;2023-05-10T00:41:31;7.57;;;6.77;;
21521;SDS011;10922;45.572;10.002;2023-05-10T00:43:57;6.97;;;6.27;;
21521;SDS011;10922;45.572;10.002;2023-05-10T00:46:23;6.60;;;6.00;;
21521;SDS011;10922;45.572;10.002;2023-05-10T00:48:50;7.00;;;6.13;;
21521;SDS011;10922;45.572;10.002;2023-05-10T00:51:16;5.90;;;5.40;;
21521;SDS011;10922;45.572;10.002;2023-05-10T00:53:43;5.47;;;5.03;;
21521;SDS011;10922;45.572;10.002;2023-05-10T00:56:10;6.40;;;5.80;;
21521;SDS011;10922;45.572;10.002;2023-05-10T00:58:37;7.33;;;5.67;;
21521;SDS011;10922;45.572;10.002;2023-05-10T01:01:04;7.03;;;6.00;;
21521;SDS011;10922;45.572;10.002;2023-05-10T01:03:30;6.10;;;5.30;;
21521;SDS011;10922;45.572;10.002;2023-05-10T01:05:57;7.27;;;5.67;;
21521;SDS011;10922;45.572;10.002;2023-05-10T01:08:22;6.93;;;5.63;;
21521;SDS011;10922;45.572;10.002;2023-05-10T01:10:49;5.90;;;5.30;;
21521;SDS011;10922;45.572;10.002;2023-05-10T01:13:33;6.20;;;5.60;;
21521;SDS011;10922;45.572;10.002;2023-05-10T01:16:04;7.87;;;5.43;;
21521;SDS011;10922;45.572;10.002;2023-05-10T01:18:33;6.10;;;5.53;;
21521;SDS011;10922;45.572;10.002;2023-05-10T01:21:14;6.17;;;5.67;;
21521;SDS011;10922;45.572;10.002;2023-05-10T01:32:20;5.70;;;5.20;;
21521;SDS011;10922;45.572;10.002;2023-05-10T01:35:09;5.70;;;5.13;;
21521;SDS011;10922;45.572;10.002;2023-05-10T01:37:43;7.27;;;4.90;;
21521;SDS011;10922;45.572;10.002;2023-05-10T01:40:23;5.50;;;5.00;;
21521;SDS011;10922;45.572;10.002;2023-05-10T01:42:58;5.43;;;4.93;;
21521;SDS011;10922;45.572;10.002;2023-05-10T01:45:36;4.83;;;4.43;;
21521;SDS011;10922;45.572;10.002;2023-05-10T01:48:09;6.37;;;4.67;;
21521;SDS011;10922;45.572;10.002;2023-05-10T01:50:37;6.47;;;4.93;;
21521;SDS011;10922;45.572;10.002;2023-05-10T01:53:08;6.03;;;4.97;;
21521;SDS011;10922;45.572;10.002;2023-05-10T01:55:39;5.20;;;4.63;;
21521;SDS011;10922;45.572;10.002;2023-05-10T01:58:13;5.40;;;4.90;;
21521;SDS011;10922;45.572;10.002;2023-05-10T02:00:41;5.17;;;4.77;;
21521;SDS011;10922;45.572;10.002;2023-05-10T02:03:09;5.37;;;4.87;;
21521;SDS011;10922;45.572;10.002;2023-05-10T02:05:36;4.93;;;4.47;;
21521;SDS011;10922;45.572;10.002;2023-05-10T02:08:05;5.57;;;5.07;;
21521;SDS011;10922;45.572;10.002;2023-05-10T02:10:34;6.03;;;4.47;;
21521;SDS011;10922;45.572;10.002;2023-05-10T02:13:01;5.83;;;5.23;;
21521;SDS011;10922;45.572;10.002;2023-05-10T02:15:27;5.27;;;4.63;;
21521;SDS011;10922;45.572;10.002;2023-05-10T02:17:55;5.43;;;4.93;;
21521;SDS011;10922;45.572;10.002;2023-05-10T02:20:22;5.47;;;4.90;;
21521;SDS011;10922;45.572;10.002;2023-05-10T02:22:50;4.80;;;4.30;;
21521;SDS011;10922;45.572;10.002;2023-05-10T02:25:19;4.87;;;4.37;;
21521;SDS011;10922;45.572;10.002;2023-05-10T02:27:47;4.47;;;3.67;;
21521;SDS011;10922;45.572;10.002;2023-05-10T02:30:13;4.73;;;4.20;;
21521;SDS011;10922;45.572;10.002;2023-05-10T02:32:40;4.80;;;4.37;;
21521;SDS011;10922;45.572;10.002;2023-05-10T02:35:07;5.60;;;4.63;;
21521;SDS011;10922;45.572;10.002;2023-05-10T02:37:35;8.03;;;4.77;;
21521;SDS011;10922;45.572;10.002;2023-05-10T02:40:02;5.37;;;4.83;;
21521;SDS011;10922;45.572;10.002;2023-05-10T02:42:29;5.07;;;4.57;;
21521;SDS011;10922;45.572;10.002;2023-05-10T02:45:00;5.47;;;4.90;;
21521;SDS011;10922;45.572;10.002;2023-05-10T02:47:28;5.10;;;4.63;;
21521;SDS011;10922;45.572;10.002;2023-05-10T02:49:54;5.37;;;4.87;;
21521;SDS011;10922;45.572;10.002;2023-05-10T02:52:24;5.60;;;5.10;;
21521;SDS011;10922;45.572;10.002;2023-05-10T02:54:54;5.83;;;4.93;;
21521;SDS011;10922;45.572;10.002;2023-05-10T02:57:25;7.47;;;5.03;;
21521;SDS011;10922;45.572;10.002;2023-05-10T02:59:54;5.83;;;5.33;;
21521;SDS011;10922;45.572;10.002;2023-05-10T03:02:20;5.27;;;4.87;;
21521;SDS011;10922;45.572;10.002;2023-05-10T03:04:46;5.50;;;5.00;;
21521;SDS011;10922;45.572;10.002;2023-05-10T03:07:12;4.87;;;4.47;;
21521;SDS011;10922;45.572;10.002;2023-05-10T03:09:38;5.50;;;5.00;;
21521;SDS011;10922;45.572;10.002;2023-05-10T03:12:15;6.33;;;5.03;;
21521;SDS011;10922;45.572;10.002;2023-05-10T03:15:11;5.20;;;4.70;;
21521;SDS011;10922;45.572;10.002;2023-05-10T03:18:06;5.37;;;4.87;;
21521;SDS011;10922;45.572;10.002;2023-05-10T03:20:36;6.07;;;4.53;;
21521;SDS011;10922;45.572;10.002;2023-05-10T03:23:11;5.53;;;5.03;;
21521;SDS011;10922;45.572;10.002;2023-05-10T03:25:41;5.97;;;5.10;;
21521;SDS011;10922;45.572;10.002;2023-05-10T03:28:08;5.00;;;4.43;;
21521;SDS011;10922;45.572;10.002;2023-05-10T03:30:34;5.67;;;5.17;;
21521;SDS011;10922;45.572;10.002;2023-05-10T03:33:07;7.70;;;4.97;;
21521;SDS011;10922;45.572;10.002;2023-05-10T03:35:33;7.23;;;6.00;;
21521;SDS011;10922;45.572;10.002;2023-05-10T03:37:59;5.50;;;4.97;;
21521;SDS011;10922;45.572;10.002;2023-05-10T03:40:25;6.37;;;4.50;;
21521;SDS011;10922;45.572;10.002;2023-05-10T03:42:53;5.23;;;4.63;;
21521;SDS011;10922;45.572;10.002;2023-05-10T03:45:20;5.10;;;4.60;;
21521;SDS011;10922;45.572;10.002;2023-05-10T03:47:45;5.37;;;4.83;;
21521;SDS011;10922;45.572;10.002;2023-05-10T03:50:11;5.37;;;4.87;;
21521;SDS011;10922;45.572;10.002;2023-05-10T03:52:38;4.47;;;4.07;;
21521;SDS011;10922;45.572;10.002;2023-05-10T03:55:04;5.00;;;4.50;;
21521;SDS011;10922;45.572;10.002;2023-05-10T03:57:31;6.40;;;4.63;;
21521;SDS011;10922;45.572;10.002;2023-05-10T03:59:57;6.17;;;4.70;;
21521;SDS011;10922;45.572;10.002;2023-05-10T04:02:22;5.43;;;4.83;;
21521;SDS011;10922;45.572;10.002;2023-05-10T04:04:48;5.53;;;4.60;;
21521;SDS011;10922;45.572;10.002;2023-05-10T04:07:14;5.40;;;4.90;;
21521;SDS011;10922;45.572;10.002;2023-05-10T04:09:41;6.03;;;4.80;;
21521;SDS011;10922;45.572;10.002;2023-05-10T04:12:07;4.97;;;4.47;;
21521;SDS011;10922;45.572;10.002;2023-05-10T04:14:32;6.63;;;4.63;;
21521;SDS011;10922;45.572;10.002;2023-05-10T04:16:58;7.33;;;5.13;;
21521;SDS011;10922;45.572;10.002;2023-05-10T04:19:24;5.70;;;5.20;;
21521;SDS011;10922;45.572;10.002;2023-05-10T04:21:53;5.33;;;4.43;;
21521;SDS011;10922;45.572;10.002;2023-05-10T04:24:19;4.60;;;4.20;;
21521;SDS011;10922;45.572;10.002;2023-05-10T04:26:45;5.30;;;4.80;;
21521;SDS011;10922;45.572;10.002;2023-05-10T04:29:10;5.17;;;4.50;;
21521;SDS011;10922;45.572;10.002;2023-05-10T04:31:36;7.03;;;5.07;;
21521;SDS011;10922;45.572;10.002;2023-05-10T04:34:02;5.37;;;4.93;;
21521;SDS011;10922;45.572;10.002;2023-05-10T04:36:27;8.50;;;5.33;;
21521;SDS011;10922;45.572;10.002;2023-05-10T04:38:53;5.77;;;5.13;;
21521;SDS011;10922;45.572;10.002;2023-05-10T04:41:19;7.53;;;5.33;;
21521;SDS011;10922;45.572;10.002;2023-05-10T04:43:45;6.10;;;5.47;;
21521;SDS011;10922;45.572;10.002;2023-05-10T04:46:11;7.00;;;4.57;;
21521;SDS011;10922;45.572;10.002;2023-05-10T04:48:37;7.57;;;5.00;;
21521;SDS011;10922;45.572;10.002;2023-05-10T04:51:02;6.20;;;5.03;;
21521;SDS011;10922;45.572;10.002;2023-05-10T04:53:29;5.57;;;4.43;;
21521;SDS011;10922;45.572;10.002;2023-05-10T04:55:54;6.17;;;4.53;;
21521;SDS011;10922;45.572;10.002;2023-05-10T04:58:20;5.83;;;5.23;;
21521;SDS011;10922;45.572;10.002;2023-05-10T05:00:46;6.33;;;5.30;;
21521;SDS011;10922;45.572;10.002;2023-05-10T05:03:12;5.50;;;5.00;;
21521;SDS011;10922;45.572;10.002;2023-05-10T05:05:37;5.60;;;5.10;;
21521;SDS011;10922;45.572;10.002;2023-05-10T05:08:03;5.03;;;4.40;;
21521;SDS011;10922;45.572;10.002;2023-05-10T05:10:29;7.10;;;4.17;;
21521;SDS011;10922;45.572;10.002;2023-05-10T05:12:55;5.00;;;4.50;;
21521;SDS011;10922;45.572;10.002;2023-05-10T05:15:21;6.30;;;4.30;;
21521;SDS011;10922;45.572;10.002;2023-05-10T05:17:46;8.70;;;5.20;;
21521;SDS011;10922;45.572;10.002;2023-05-10T05:20:12;5.83;;;5.23;;
21521;SDS011;10922;45.572;10.002;2023-05-10T05:22:38;7.40;;;4.87;;
21521;SDS011;10922;45.572;10.002;2023-05-10T05:25:04;6.57;;;5.20;;
21521;SDS011;10922;45.572;10.002;2023-05-10T05:27:31;7.97;;;5.50;;
21521;SDS011;10922;45.572;10.002;2023-05-10T05:29:56;8.67;;;5.87;;
21521;SDS011;10922;45.572;10.002;2023-05-10T05:32:23;6.27;;;5.50;;
21521;SDS011;10922;45.572;10.002;2023-05-10T05:34:50;5.67;;;5.03;;
21521;SDS011;10922;45.572;10.002;2023-05-10T05:37:16;5.07;;;4.63;;
21521;SDS011;10922;45.572;10.002;2023-05-10T05:39:43;7.10;;;5.43;;
21521;SDS011;10922;45.572;10.002;2023-05-10T05:42:10;6.30;;;5.13;;
21521;SDS011;10922;45.572;10.002;2023-05-10T05:44:36;6.13;;;4.37;;
21521;SDS011;10922;45.572;10.002;2023-05-10T05:47:04;5.53;;;4.57;;
21521;SDS011;10922;45.572;10.002;2023-05-10T05:49:30;4.47;;;4.07;;
21521;SDS011;10922;45.572;10.002;2023-05-10T05:51:59;5.80;;;4.30;;
21521;SDS011;10922;45.572;10.002;2023-05-10T05:54:26;4.80;;;4.40;;
21521;SDS011;10922;45.572;10.002;2023-05-10T05:56:58;4.97;;;4.47;;
21521;SDS011;10922;45.572;10.002;2023-05-10T05:59:25;4.57;;;4.03;;
21521;SDS011;10922;45.572;10.002;2023-05-10T06:01:51;4.53;;;4.10;;
21521;SDS011;10922;45.572;10.002;2023-05-10T06:04:17;4.77;;;3.97;;
21521;SDS011;10922;45.572;10.002;2023-05-10T06:06:43;5.70;;;4.57;;
21521;SDS011;10922;45.572;10.002;2023-05-10T06:09:09;5.33;;;4.63;;
21521;SDS011;10922;45.572;10.002;2023-05-10T06:11:36;5.20;;;4.10;;
21521;SDS011;10922;45.572;10.002;2023-05-10T06:14:02;5.70;;;4.00;;
21521;SDS011;10922;45.572;10.002;2023-05-10T06:16:33;6.97;;;4.30;;
21521;SDS011;10922;45.572;10.002;2023-05-10T06:18:59;5.57;;;4.97;;
21521;SDS011;10922;45.572;10.002;2023-05-10T06:21:25;7.93;;;5.33;;
21521;SDS011;10922;45.572;10.002;2023-05-10T06:23:51;5.33;;;4.50;;
21521;SDS011;10922;45.572;10.002;2023-05-10T06:26:16;5.90;;;5.30;;
21521;SDS011;10922;45.572;10.002;2023-05-10T06:28:42;5.63;;;4.80;;
21521;SDS011;10922;45.572;10.002;2023-05-10T06:31:08;5.17;;;4.67;;
21521;SDS011;10922;45.572;10.002;2023-05-10T06:33:33;6.30;;;4.80;;
21521;SDS011;10922;45.572;10.002;2023-05-10T06:36:00;7.90;;;4.80;;
21521;SDS011;10922;45.572;10.002;2023-05-10T06:38:26;5.90;;;4.10;;
21521;SDS011;10922;45.572;10.002;2023-05-10T06:40:51;4.70;;;4.13;;
21521;SDS011;10922;45.572;10.002;2023-05-10T06:43:17;4.57;;;4.10;;
21521;SDS011;10922;45.572;10.002;2023-05-10T06:45:43;4.67;;;3.53;;
21521;SDS011;10922;45.572;10.002;2023-05-10T06:48:08;4.50;;;4.03;;
21521;SDS011;10922;45.572;10.002;2023-05-10T06:50:34;5.60;;;4.00;;
21521;SDS011;10922;45.572;10.002;2023-05-10T06:53:00;5.30;;;3.83;;
21521;SDS011;10922;45.572;10.002;2023-05-10T06:55:26;4.57;;;3.97;;
21521;SDS011;10922;45.572;10.002;2023-05-10T06:57:53;4.00;;;3.60;;
21521;SDS011;10922;45.572;10.002;2023-05-10T07:00:19;5.10;;;4.37;;
21521;SDS011;10922;45.572;10.002;2023-05-10T07:02:45;5.07;;;4.57;;
21521;SDS011;10922;45.572;10.002;2023-05-10T07:05:11;4.90;;;4.50;;
21521;SDS011;10922;45.572;10.002;2023-05-10T07:07:38;5.50;;;5.00;;
21521;SDS011;10922;45.572;10.002;2023-05-10T07:10:05;5.37;;;4.97;;
21521;SDS011;10922;45.572;10.002;2023-05-10T07:12:32;5.13;;;4.57;;
21521;SDS011;10922;45.572;10.002;2023-05-10T07:14:58;6.83;;;6.20;;
21521;SDS011;10922;45.572;10.002;2023-05-10T07:17:23;5.93;;;5.23;;
21521;SDS011;10922;45.572;10.002;2023-05-10T07:19:49;6.40;;;5.80;;
21521;SDS011;10922;45.572;10.002;2023-05-10T07:22:15;6.37;;;5.77;;
21521;SDS011;10922;45.572;10.002;2023-05-10T07:24:41;6.60;;;5.93;;
21521;SDS011;10922;45.572;10.002;2023-05-10T07:27:07;6.17;;;5.57;;
21521;SDS011;10922;45.572;10.002;2023-05-10T07:29:34;6.47;;;5.90;;
21521;SDS011;10922;45.572;10.002;2023-05-10T07:32:01;8.60;;;6.47;;
21521;SDS011;10922;45.572;10.002;2023-05-10T07:34:27;6.77;;;6.07;;
21521;SDS011;10922;45.572;10.002;2023-05-10T07:36:53;6.43;;;5.83;;
21521;SDS011;10922;45.572;10.002;2023-05-10T07:39:19;6.33;;;5.73;;
21521;SDS011;10922;45.572;10.002;2023-05-10T07:41:48;6.77;;;6.13;;
21521;SDS011;10922;45.572;10.002;2023-05-10T07:44:13;11.60;;;6.43;;
21521;SDS011;10922;45.572;10.002;2023-05-10T07:46:39;9.27;;;5.87;;
21521;SDS011;10922;45.572;10.002;2023-05-10T07:49:05;6.77;;;6.07;;
21521;SDS011;10922;45.572;10.002;2023-05-10T07:51:31;7.00;;;6.30;;
21521;SDS011;10922;45.572;10.002;2023-05-10T07:53:56;6.53;;;5.90;;
21521;SDS011;10922;45.572;10.002;2023-05-10T07:58:54;7.43;;;6.73;;
21521;SDS011;10922;45.572;10.002;2023-05-10T08:01:21;7.77;;;7.07;;
21521;SDS011;10922;45.572;10.002;2023-05-10T08:03:47;7.53;;;6.43;;
21521;SDS011;10922;45.572;10.002;2023-05-10T08:06:14;7.17;;;6.47;;
21521;SDS011;10922;45.572;10.002;2023-05-10T08:08:40;5.90;;;5.33;;
21521;SDS011;10922;45.572;10.002;2023-05-10T08:11:06;6.93;;;6.20;;
21521;SDS011;10922;45.572;10.002;2023-05-10T08:13:32;6.20;;;4.90;;
21521;SDS011;10922;45.572;10.002;2023-05-10T08:15:57;6.77;;;6.03;;
21521;SDS011;10922;45.572;10.002;2023-05-10T08:18:23;8.27;;;7.47;;
21521;SDS011;10922;45.572;10.002;2023-05-10T08:20:49;8.23;;;7.47;;
21521;SDS011;10922;45.572;10.002;2023-05-10T08:23:15;8.13;;;7.23;;
21521;SDS011;10922;45.572;10.002;2023-05-10T08:25:41;8.17;;;7.47;;
21521;SDS011;10922;45.572;10.002;2023-05-10T08:28:06;6.23;;;5.73;;
21521;SDS011;10922;45.572;10.002;2023-05-10T08:30:32;4.97;;;4.53;;
21521;SDS011;10922;45.572;10.002;2023-05-10T08:32:58;5.47;;;4.97;;
21521;SDS011;10922;45.572;10.002;2023-05-10T08:35:23;5.23;;;4.73;;
21521;SDS011;10922;45.572;10.002;2023-05-10T08:37:50;5.80;;;5.30;;
21521;SDS011;10922;45.572;10.002;2023-05-10T08:40:16;5.23;;;4.83;;
21521;SDS011;10922;45.572;10.002;2023-05-10T08:42:47;4.63;;;4.23;;
21521;SDS011;10922;45.572;10.002;2023-05-10T08:45:26;4.47;;;4.07;;
21521;SDS011;10922;45.572;10.002;2023-05-10T08:47:56;4.00;;;3.70;;
21521;SDS011;10922;45.572;10.002;2023-05-10T08:50:26;4.33;;;3.93;;
21521;SDS011;10922;45.572;10.002;2023-05-10T08:52:52;4.23;;;3.90;;
21521;SDS011;10922;45.572;10.002;2023-05-10T08:55:20;4.27;;;3.97;;
21521;SDS011;10922;45.572;10.002;2023-05-10T08:57:48;4.83;;;4.43;;
21521;SDS011;10922;45.572;10.002;2023-05-10T09:00:14;4.70;;;4.40;;
21521;SDS011;10922;45.572;10.002;2023-05-10T09:02:41;5.10;;;4.70;;
21521;SDS011;10922;45.572;10.002;2023-05-10T09:05:08;4.03;;;3.80;;
21521;SDS011;10922;45.572;10.002;2023-05-10T09:07:35;4.40;;;4.10;;
21521;SDS011;10922;45.572;10.002;2023-05-10T09:10:01;4.27;;;3.87;;
21521;SDS011;10922;45.572;10.002;2023-05-10T09:12:29;4.10;;;3.70;;
21521;SDS011;10922;45.572;10.002;2023-05-10T09:14:54;4.07;;;3.77;;
21521;SDS011;10922;45.572;10.002;2023-05-10T09:17:23;4.37;;;4.07;;
21521;SDS011;10922;45.572;10.002;2023-05-10T09:19:50;3.70;;;3.50;;
21521;SDS011;10922;45.572;10.002;2023-05-10T09:22:23;3.80;;;3.60;;
21521;SDS011;10922;45.572;10.002;2023-05-10T09:25:03;3.53;;;3.30;;
21521;SDS011;10922;45.572;10.002;2023-05-10T09:27:36;5.00;;;3.40;;
21521;SDS011;10922;45.572;10.002;2023-05-10T09:30:03;3.93;;;3.63;;
21521;SDS011;10922;45.572;10.002;2023-05-10T09:32:40;4.10;;;3.80;;
21521;SDS011;10922;45.572;10.002;2023-05-10T09:35:07;4.63;;;4.23;;
21521;SDS011;10922;45.572;10.002;2023-05-10T09:37:33;5.63;;;5.13;;
21521;SDS011;10922;45.572;10.002;2023-05-10T09:39:58;5.60;;;5.20;;
21521;SDS011;10922;45.572;10.002;2023-05-10T09:42:24;5.97;;;5.47;;
21521;SDS011;10922;45.572;10.002;2023-05-10T09:44:50;5.30;;;4.90;;
21521;SDS011;10922;45.572;10.002;2023-05-10T09:47:19;5.97;;;5.47;;
21521;SDS011;10922;45.572;10.002;2023-05-10T09:49:49;5.20;;;4.80;;
21521;SDS011;10922;45.572;10.002;2023-05-10T09:52:15;5.40;;;4.90;;
21521;SDS011;10922;45.572;10.002;2023-05-10T09:54:44;5.13;;;4.63;;
21521;SDS011;10922;45.572;10.002;2023-05-10T09:57:21;4.50;;;4.20;;
21521;SDS011;10922;45.572;10.002;2023-05-10T09:59:48;4.90;;;4.50;;
21521;SDS011;10922;45.572;10.002;2023-05-10T10:02:14;4.63;;;4.33;;
21521;SDS011;10922;45.572;10.002;2023-05-10T10:04:41;4.80;;;4.50;;
21521;SDS011;10922;45.572;10.002;2023-05-10T10:07:07;6.20;;;5.60;;
21521;SDS011;10922;45.572;10.002;2023-05-10T10:09:33;5.30;;;4.90;;
21521;SDS011;10922;45.572;10.002;2023-05-10T10:12:00;5.20;;;4.80;;
21521;SDS011;10922;45.572;10.002;2023-05-10T10:14:27;4.77;;;4.37;;
21521;SDS011;10922;45.572;10.002;2023-05-10T10:16:53;5.47;;;5.07;;
21521;SDS011;10922;45.572;10.002;2023-05-10T10:19:19;5.37;;;5.03;;
21521;SDS011;10922;45.572;10.002;2023-05-10T10:21:46;5.10;;;4.77;;
21521;SDS011;10922;45.572;10.002;2023-05-10T10:24:15;6.67;;;6.13;;
21521;SDS011;10922;45.572;10.002;2023-05-10T10:26:41;5.53;;;5.07;;
21521;SDS011;10922;45.572;10.002;2023-05-10T10:29:25;5.80;;;5.30;;
21521;SDS011;10922;45.572;10.002;2023-05-10T10:32:06;4.93;;;4.53;;
21521;SDS011;10922;45.572;10.002;2023-05-10T10:34:43;4.33;;;4.03;;
21521;SDS011;10922;45.572;10.002;2023-05-10T10:37:09;4.70;;;4.30;;
21521;SDS011;10922;45.572;10.002;2023-05-10T10:39:34;4.70;;;4.30;;
21521;SDS011;10922;45.572;10.002;2023-05-10T10:42:01;5.40;;;4.90;;
21521;SDS011;10922;45.572;10.002;2023-05-10T10:55:18;5.23;;;4.83;;
21521;SDS011;10922;45.572;10.002;2023-05-10T10:57:54;4.50;;;4.20;;
21521;SDS011;10922;45.572;10.002;2023-05-10T11:00:31;5.20;;;4.80;;
21521;SDS011;10922;45.572;10.002;2023-05-10T11:03:05;4.53;;;4.23;;
21521;SDS011;10922;45.572;10.002;2023-05-10T11:05:39;4.53;;;4.23;;
21521;SDS011;10922;45.572;10.002;2023-05-10T11:08:09;4.77;;;4.40;;
21521;SDS011;10922;45.572;10.002;2023-05-10T11:10:36;5.23;;;4.83;;
21521;SDS011;10922;45.572;10.002;2023-05-10T11:13:07;4.17;;;3.87;;
21521;SDS011;10922;45.572;10.002;2023-05-10T11:18:19;4.77;;;4.37;;
21521;SDS011;10922;45.572;10.002;2023-05-10T11:21:10;5.03;;;4.63;;
21521;SDS011;10922;45.572;10.002;2023-05-10T11:26:07;5.07;;;4.67;;
21521;SDS011;10922;45.572;10.002;2023-05-10T11:28:34;4.07;;;3.77;;
21521;SDS011;10922;45.572;10.002;2023-05-10T11:31:06;4.47;;;4.07;;
21521;SDS011;10922;45.572;10.002;2023-05-10T11:33:41;4.83;;;4.43;;
21521;SDS011;10922;45.572;10.002;2023-05-10T11:36:10;3.80;;;3.50;;
21521;SDS011;10922;45.572;10.002;2023-05-10T11:38:40;5.20;;;4.70;;
21521;SDS011;10922;45.572;10.002;2023-05-10T11:41:07;4.27;;;3.97;;
21521;SDS011;10922;45.572;10.002;2023-05-10T11:43:36;4.73;;;4.43;;
21521;SDS011;10922;45.572;10.002;2023-05-10T11:46:04;5.27;;;4.77;;
21521;SDS011;10922;45.572;10.002;2023-05-10T11:48:37;5.50;;;5.00;;
21521;SDS011;10922;45.572;10.002;2023-05-10T11:51:05;5.03;;;4.53;;
21521;SDS011;10922;45.572;10.002;2023-05-10T11:53:32;5.20;;;4.70;;
21521;SDS011;10922;45.572;10.002;2023-05-10T11:56:07;5.63;;;5.10;;
21521;SDS011;10922;45.572;10.002;2023-05-10T11:58:35;5.20;;;4.80;;
21521;SDS011;10922;45.572;10.002;2023-05-10T12:01:02;5.90;;;5.50;;
21521;SDS011;10922;45.572;10.002;2023-05-10T12:03:29;6.27;;;5.77;;
21521;SDS011;10922;45.572;10.002;2023-05-10T12:05:55;5.67;;;5.27;;
21521;SDS011;10922;45.572;10.002;2023-05-10T12:08:23;5.67;;;5.17;;
21521;SDS011;10922;45.572;10.002;2023-05-10T12:10:49;4.80;;;4.40;;
21521;SDS011;10922;45.572;10.002;2023-05-10T12:13:16;4.83;;;4.47;;
21521;SDS011;10922;45.572;10.002;2023-05-10T12:15:42;5.33;;;4.93;;
21521;SDS011;10922;45.572;10.002;2023-05-10T12:18:11;5.20;;;4.80;;
21521;SDS011;10922;45.572;10.002;2023-05-10T12:20:47;4.83;;;4.47;;
21521;SDS011;10922;45.572;10.002;2023-05-10T12:23:12;5.30;;;4.90;;
21521;SDS011;10922;45.572;10.002;2023-05-10T12:25:38;3.90;;;3.60;;
21521;SDS011;10922;45.572;10.002;2023-05-10T12:28:05;4.70;;;4.40;;
21521;SDS011;10922;45.572;10.002;2023-05-10T12:30:33;3.90;;;3.60;;
21521;SDS011;10922;45.572;10.002;2023-05-10T12:33:07;4.07;;;3.77;;
21521;SDS011;10922;45.572;10.002;2023-05-10T12:35:33;3.73;;;3.43;;
21521;SDS011;10922;45.572;10.002;2023-05-10T12:38:27;4.33;;;4.00;;
21521;SDS011;10922;45.572;10.002;2023-05-10T12:41:02;4.80;;;4.43;;
21521;SDS011;10922;45.572;10.002;2023-05-10T12:43:29;3.90;;;3.60;;
21521;SDS011;10922;45.572;10.002;2023-05-10T12:45:55;5.10;;;4.70;;
21521;SDS011;10922;45.572;10.002;2023-05-10T12:48:21;4.77;;;4.37;;
21521;SDS011;10922;45.572;10.002;2023-05-10T12:50:47;4.67;;;4.37;;
21521;SDS011;10922;45.572;10.002;2023-05-10T12:53:14;5.00;;;4.60;;
21521;SDS011;10922;45.572;10.002;2023-05-10T12:55:43;5.23;;;4.83;;
21521;SDS011;10922;45.572;10.002;2023-05-10T12:58:09;4.90;;;4.50;;
21521;SDS011;10922;45.572;10.002;2023-05-10T13:00:35;5.23;;;4.63;;
21521;SDS011;10922;45.572;10.002;2023-05-10T13:03:03;5.03;;;4.70;;
21521;SDS011;10922;45.572;10.002;2023-05-10T13:05:31;5.30;;;4.90;;
21521;SDS011;10922;45.572;10.002;2023-05-10T13:07:57;5.00;;;4.63;;
21521;SDS011;10922;45.572;10.002;2023-05-10T13:10:23;4.90;;;4.50;;
21521;SDS011;10922;45.572;10.002;2023-05-10T13:12:48;5.67;;;5.23;;
21521;SDS011;10922;45.572;10.002;2023-05-10T13:15:14;4.80;;;4.40;;
21521;SDS011;10922;45.572;10.002;2023-05-10T13:17:40;4.80;;;4.50;;
21521;SDS011;10922;45.572;10.002;2023-05-10T13:20:07;6.00;;;5.60;;
21521;SDS011;10922;45.572;10.002;2023-05-10T13:22:34;5.63;;;5.10;;
21521;SDS011;10922;45.572;10.002;2023-05-10T13:25:00;6.07;;;5.57;;
21521;SDS011;10922;45.572;10.002;2023-05-10T13:27:26;5.20;;;4.80;;
21521;SDS011;10922;45.572;10.002;2023-05-10T13:29:52;5.43;;;5.00;;
21521;SDS011;10922;45.572;10.002;2023-05-10T13:32:18;5.03;;;4.73;;
21521;SDS011;10922;45.572;10.002;2023-05-10T13:34:44;5.70;;;5.20;;
21521;SDS011;10922;45.572;10.002;2023-05-10T13:37:09;6.13;;;5.37;;
21521;SDS011;10922;45.572;10.002;2023-05-10T13:39:35;5.93;;;5.23;;
21521;SDS011;10922;45.572;10.002;2023-05-10T13:42:02;5.50;;;5.10;;
21521;SDS011;10922;45.572;10.002;2023-05-10T13:44:28;5.60;;;5.10;;
21521;SDS011;10922;45.572;10.002;2023-05-10T13:46:55;6.30;;;5.70;;
21521;SDS011;10922;45.572;10.002;2023-05-10T13:49:21;6.00;;;5.60;;
21521;SDS011;10922;45.572;10.002;2023-05-10T13:51:47;5.40;;;5.00;;
21521;SDS011;10922;45.572;10.002;2023-05-10T13:54:12;5.90;;;5.50;;
21521;SDS011;10922;45.572;10.002;2023-05-10T13:56:38;6.03;;;5.63;;
21521;SDS011;10922;45.572;10.002;2023-05-10T13:59:05;7.50;;;6.77;;
21521;SDS011;10922;45.572;10.002;2023-05-10T14:01:32;6.43;;;5.93;;
21521;SDS011;10922;45.572;10.002;2023-05-10T14:03:58;7.30;;;6.70;;
21521;SDS011;10922;45.572;10.002;2023-05-10T14:06:24;7.20;;;6.63;;
21521;SDS011;10922;45.572;10.002;2023-05-10T14:08:51;7.13;;;6.53;;
21521;SDS011;10922;45.572;10.002;2023-05-10T14:11:18;7.43;;;6.70;;
21521;SDS011;10922;45.572;10.002;2023-05-10T14:13:44;6.30;;;5.80;;
21521;SDS011;10922;45.572;10.002;2023-05-10T14:16:10;6.43;;;5.93;;
21521;SDS011;10922;45.572;10.002;2023-05-10T14:18:36;6.53;;;6.03;;
21521;SDS011;10922;45.572;10.002;2023-05-10T14:21:02;6.33;;;5.83;;
21521;SDS011;10922;45.572;10.002;2023-05-10T14:23:28;6.53;;;5.93;;
21521;SDS011;10922;45.572;10.002;2023-05-10T14:25:55;6.37;;;5.83;;
21521;SDS011;10922;45.572;10.002;2023-05-10T14:28:20;6.77;;;6.27;;
21521;SDS011;10922;45.572;10.002;2023-05-10T14:30:47;7.07;;;6.43;;
21521;SDS011;10922;45.572;10.002;2023-05-10T14:33:13;6.93;;;6.33;;
21521;SDS011;10922;45.572;10.002;2023-05-10T14:35:39;7.40;;;6.27;;
21521;SDS011;10922;45.572;10.002;2023-05-10T14:38:05;6.83;;;6.33;;
21521;SDS011;10922;45.572;10.002;2023-05-10T14:40:30;7.43;;;6.03;;
21521;SDS011;10922;45.572;10.002;2023-05-10T14:42:56;6.67;;;6.00;;
21521;SDS011;10922;45.572;10.002;2023-05-10T14:45:22;6.83;;;6.23;;
21521;SDS011;10922;45.572;10.002;2023-05-10T14:47:48;7.03;;;6.53;;
21521;SDS011;10922;45.572;10.002;2023-05-10T14:50:15;5.97;;;5.57;;
21521;SDS011;10922;45.572;10.002;2023-05-10T14:52:41;6.83;;;6.23;;
21521;SDS011;10922;45.572;10.002;2023-05-10T14:55:07;7.07;;;6.47;;
21521;SDS011;10922;45.572;10.002;2023-05-10T14:57:33;7.03;;;6.43;;
21521;SDS011;10922;45.572;10.002;2023-05-10T14:59:59;7.93;;;7.13;;
21521;SDS011;10922;45.572;10.002;2023-05-10T15:02:25;7.73;;;7.00;;